Thunder radar more information blitzortung!


Radar de pluja more information rain snow radar


Visita la nostra xarxa de llocs de meteo:

Template documentation
and downloads

And another site



No particular awareness of the weather is required.    There are no Weather-warnings

Pagina Historial Weather Underground text

Diari Resum Octubre 12, 2017 Unitats:  Imperial    Mètric   Tant
« Previous Dia
SegĂźent Dia »
Diari Setmana Mensual Anual Personalitzada
  Maxima: Minima: Media:
Temperatura: TemperatureC °F 13.8 °F 20.9 °F
Punt de rosada: DewpointC °F 12.2 °F 15.7 °F
Humitat: Humidity % 51 % 73 %
Wind Speed: WindSpeedKMH mph 0.0 mph 5.6 mph
RĂ fegues de vent: WindSpeedGustKMH mph - -
Vent:- - SSW
Pression baro: PressurehPa in 1022.9 in -
Precipitacions: 0.0 in    
Historical Graphs
 
 
Dades de taula per Octubre 12, 2017
Temps Temperatura Punt de rosada Pression baro Vent Wind Speed RĂ fegues de vent Humitat Rainfall Rate (Hourly)
TemperatureC °F DewpointC °F PressurehPa in Calm     Humidity % HourlyPrecipMM in
00:00 15.0 °F 13.4 °F 1023.9 in Calm   1.6 mph 90 % 0.0 in
00:02 18.4 °F 15.7 °F 1023.9 in West 1.9 mph   84 % 0.0 in
00:07 18.4 °F 15.7 °F 1023.9 in West 1.9 mph 2.3 mph 84 % 0.0 in
00:10 14.9 °F 13.3 °F 1023.9 in Calm   1.6 mph 90 % 0.0 in
00:12 18.4 °F 15.8 °F 1023.9 in West 2.6 mph 2.6 mph 85 % 0.0 in
00:20 14.7 °F 13.1 °F 1023.9 in Calm   1.6 mph 90 % 0.0 in
00:30 14.6 °F 13.0 °F 1023.9 in SW 3.2 mph 3.2 mph 90 % 0.0 in
00:40 14.4 °F 12.6 °F 1023.9 in SW 3.2 mph 4.8 mph 89 % 0.0 in
00:50 14.2 °F 12.4 °F 1023.9 in SW 1.6 mph 3.2 mph 89 % 0.0 in
01:00 14.1 °F 12.5 °F 1023.9 in Calm   3.2 mph 90 % 0.0 in
01:10 14.1 °F 12.5 °F 1023.9 in Calm   3.2 mph 90 % 0.0 in
01:20 14.1 °F 12.5 °F 1023.9 in SW 3.2 mph 3.2 mph 90 % 0.0 in
01:30 14.1 °F 12.5 °F 1023.9 in SW 1.6 mph 3.2 mph 90 % 0.0 in
01:40 14.1 °F 12.5 °F 1023.9 in WSW 3.2 mph 3.2 mph 90 % 0.0 in
01:50 14.2 °F 12.6 °F 1023.9 in WSW 1.6 mph 3.2 mph 90 % 0.0 in
02:00 14.1 °F 12.5 °F 1024.9 in WSW 3.2 mph 3.2 mph 90 % 0.0 in
02:10 13.9 °F 12.3 °F 1024.9 in SW 3.2 mph 3.2 mph 90 % 0.0 in
02:20 13.8 °F 12.2 °F 1024.9 in WSW 1.6 mph 3.2 mph 90 % 0.0 in
02:30 13.9 °F 12.4 °F 1026.0 in SW 1.6 mph 4.8 mph 91 % 0.0 in
02:50 14.2 °F 12.9 °F 1026.0 in Calm   3.2 mph 92 % 0.0 in
03:00 14.1 °F 12.8 °F 1026.0 in Calm   1.6 mph 92 % 0.0 in
03:10 14.1 °F 12.8 °F 1026.0 in Calm     92 % 0.0 in
03:20 14.0 °F 12.7 °F 1026.0 in Calm     92 % 0.0 in
03:30 14.1 °F 12.8 °F 1026.0 in Calm     92 % 0.0 in
03:40 14.2 °F 13.1 °F 1026.0 in Calm     93 % 0.0 in
03:50 14.3 °F 13.0 °F 1026.0 in Calm     92 % 0.0 in
04:00 14.4 °F 13.3 °F 1026.0 in Calm     93 % 0.0 in
04:10 14.9 °F 13.8 °F 1026.0 in WSW 1.6 mph 1.6 mph 93 % 0.0 in
04:20 15.2 °F 14.1 °F 1026.0 in WSW 1.6 mph 3.2 mph 93 % 0.0 in
04:30 15.5 °F 14.4 °F 1026.0 in Calm   1.6 mph 93 % 0.0 in
04:40 16.0 °F 14.9 °F 1026.0 in SW 3.2 mph 3.2 mph 93 % 0.0 in
04:50 16.1 °F 14.9 °F 1026.0 in Calm   3.2 mph 93 % 0.0 in
05:00 16.4 °F 15.3 °F 1026.0 in Calm     93 % 0.0 in
05:10 16.6 °F 15.4 °F 1026.0 in South 1.6 mph 3.2 mph 93 % 0.0 in
05:20 16.8 °F 15.5 °F 1027.0 in North 1.6 mph 3.2 mph 92 % 0.0 in
05:30 17.2 °F 15.7 °F 1027.0 in NNW 1.6 mph 3.2 mph 91 % 0.0 in
05:40 17.4 °F 15.7 °F 1027.0 in SSW 3.2 mph 4.8 mph 90 % 0.0 in
05:50 17.9 °F 15.9 °F 1027.0 in NE 1.6 mph 3.2 mph 88 % 0.0 in
06:00 18.4 °F 16.0 °F 1027.0 in Calm   1.6 mph 86 % 0.0 in
11:01 18.6 °F 16.2 °F 1027.0 in NNW 1.9 mph   86 % 0.0 in
11:06 18.6 °F 16.0 °F 1027.0 in NNE 2.3 mph 2.3 mph 85 % 0.0 in
11:11 18.7 °F 15.9 °F 1027.0 in South 1.9 mph   84 % 0.0 in
11:16 19.0 °F 16.1 °F 1027.0 in SW 3.7 mph 3.7 mph 83 % 0.0 in
11:21 19.1 °F 16.2 °F 1027.0 in South 3.7 mph 3.7 mph 83 % 0.0 in
11:31 19.2 °F 16.1 °F 1027.0 in ESE 1.9 mph 1.9 mph 82 % 0.0 in
11:36 19.5 °F 16.3 °F 1027.0 in SE 2.6 mph 2.6 mph 82 % 0.0 in
11:41 19.9 °F 16.7 °F 1027.0 in WNW 3.7 mph 3.7 mph 82 % 0.0 in
11:46 20.0 °F 16.6 °F 1027.0 in NNE 3.7 mph 3.7 mph 81 % 0.0 in
11:47 20.1 °F 16.6 °F 1027.0 in NNE 1.9 mph   80 % 0.0 in
11:57 20.3 °F 16.6 °F 1027.0 in NNW 1.9 mph   79 % 0.0 in
12:02 20.7 °F 16.7 °F 1027.0 in NE 1.9 mph   78 % 0.0 in
12:07 20.8 °F 16.6 °F 1027.0 in SE 5.6 mph 5.6 mph 77 % 0.0 in
12:12 21.0 °F 16.6 °F 1027.0 in ESE 3.7 mph 3.7 mph 76 % 0.0 in
12:17 21.7 °F 17.3 °F 1027.0 in ESE 3.9 mph 3.9 mph 76 % 0.0 in
12:22 22.0 °F 17.4 °F 1027.0 in East 3.5 mph 3.5 mph 75 % 0.0 in
12:27 22.2 °F 17.3 °F 1027.0 in NNE 5.8 mph 5.8 mph 74 % 0.0 in
12:32 22.0 °F 16.7 °F 1027.0 in ENE 5.6 mph 5.6 mph 72 % 0.0 in
12:37 22.3 °F 17.2 °F 1027.0 in ENE 6.1 mph 6.1 mph 73 % 0.0 in
12:42 22.6 °F 17.5 °F 1027.0 in ENE 5.8 mph 5.8 mph 73 % 0.0 in
12:44 22.5 °F 17.2 °F 1027.0 in NNE 5.6 mph 5.6 mph 72 % 0.0 in
12:49 22.4 °F 17.1 °F 1027.0 in NE 7.4 mph 7.4 mph 72 % 0.0 in
12:54 22.4 °F 17.1 °F 1027.0 in WNW 1.9 mph 1.9 mph 72 % 0.0 in
12:59 22.7 °F 17.4 °F 1027.0 in NW 3.7 mph 3.7 mph 72 % 0.0 in
13:04 23.1 °F 17.3 °F 1027.0 in ESE 3.7 mph 3.7 mph 70 % 0.0 in
13:09 23.3 °F 17.3 °F 1027.0 in SE 5.6 mph 5.6 mph 69 % 0.0 in
13:14 23.2 °F 16.7 °F 1027.0 in SW 5.6 mph 5.6 mph 67 % 0.0 in
13:19 23.4 °F 17.4 °F 1027.0 in NE 5.6 mph 5.6 mph 69 % 0.0 in
13:24 23.0 °F 16.6 °F 1027.0 in SE 5.6 mph 5.6 mph 67 % 0.0 in
13:29 23.7 °F 17.4 °F 1026.0 in ESE 6.4 mph 6.4 mph 68 % 0.0 in
13:34 23.3 °F 16.6 °F 1026.0 in SE 9.0 mph 9.0 mph 66 % 0.0 in
13:39 23.3 °F 16.8 °F 1026.0 in ENE 5.6 mph 5.6 mph 67 % 0.0 in
13:44 23.6 °F 17.3 °F 1024.9 in WNW 3.7 mph 3.7 mph 68 % 0.0 in
13:49 23.9 °F 17.4 °F 1024.9 in SW 3.7 mph 3.7 mph 67 % 0.0 in
13:54 23.9 °F 16.7 °F 1024.9 in ESE 7.4 mph 7.4 mph 64 % 0.0 in
13:59 24.0 °F 16.8 °F 1024.9 in ENE 9.3 mph 9.3 mph 64 % 0.0 in
14:04 24.5 °F 17.5 °F 1024.9 in SSW 1.9 mph 2.3 mph 65 % 0.0 in
14:09 24.6 °F 17.6 °F 1024.9 in SE 5.6 mph 5.6 mph 65 % 0.0 in
14:14 24.9 °F 17.6 °F 1026.0 in SSW 11.1 mph 11.1 mph 64 % 0.0 in
14:19 25.4 °F 17.6 °F 1026.0 in SW 7.4 mph 7.4 mph 62 % 0.0 in
14:24 25.6 °F 17.5 °F 1026.0 in SW 9.3 mph 9.3 mph 61 % 0.0 in
14:29 25.9 °F 17.6 °F 1026.0 in SSE 3.7 mph 3.7 mph 60 % 0.0 in
14:34 25.4 °F 16.8 °F 1026.0 in South 9.3 mph 9.3 mph 59 % 0.0 in
14:39 25.6 °F 17.0 °F 1026.0 in SSE 9.3 mph 9.3 mph 59 % 0.0 in
14:44 25.8 °F 17.4 °F 1026.0 in WSW 9.7 mph 10.3 mph 60 % 0.0 in
14:49 25.6 °F 17.0 °F 1026.0 in SE 11.1 mph 11.1 mph 59 % 0.0 in
14:54 25.7 °F 16.8 °F 1026.0 in SW 9.3 mph 9.3 mph 58 % 0.0 in
14:59 25.8 °F 16.9 °F 1024.9 in SSE 12.6 mph 12.6 mph 58 % 0.0 in
15:04 25.5 °F 16.1 °F 1024.9 in North 5.6 mph 5.6 mph 56 % 0.0 in
15:09 25.9 °F 16.7 °F 1024.9 in SW 7.4 mph 7.4 mph 57 % 0.0 in
15:14 26.3 °F 16.8 °F 1024.9 in WSW 11.1 mph 11.1 mph 56 % 0.0 in
15:19 26.2 °F 16.7 °F 1024.9 in WSW 6.1 mph 6.1 mph 56 % 0.0 in
15:24 26.4 °F 16.9 °F 1024.9 in SSW 12.2 mph 12.2 mph 56 % 0.0 in
15:29 26.4 °F 16.6 °F 1024.9 in SW 7.4 mph 7.4 mph 55 % 0.0 in
15:34 26.5 °F 16.7 °F 1024.9 in WSW 5.6 mph 5.6 mph 55 % 0.0 in
15:39 26.5 °F 16.7 °F 1024.9 in SSW 5.6 mph 5.6 mph 55 % 0.0 in
15:44 26.5 °F 16.2 °F 1023.9 in SSE 10.0 mph 10.0 mph 53 % 0.0 in
15:49 26.7 °F 16.9 °F 1023.9 in SW 6.4 mph 6.4 mph 55 % 0.0 in
15:54 26.8 °F 17.0 °F 1023.9 in West 7.4 mph 7.4 mph 55 % 0.0 in
15:59 26.8 °F 16.7 °F 1023.9 in West 9.3 mph 9.3 mph 54 % 0.0 in
16:04 26.9 °F 16.8 °F 1023.9 in South 9.3 mph 9.3 mph 54 % 0.0 in
16:09 27.3 °F 16.6 °F 1023.9 in SW 12.6 mph 12.6 mph 52 % 0.0 in
16:14 26.9 °F 16.5 °F 1023.9 in South 9.3 mph 9.3 mph 53 % 0.0 in
16:19 27.1 °F 16.4 °F 1023.9 in SW 7.4 mph 7.4 mph 52 % 0.0 in
16:24 26.8 °F 16.4 °F 1023.9 in SW 9.3 mph 9.3 mph 53 % 0.0 in
16:29 26.6 °F 15.9 °F 1022.9 in SW 11.1 mph 11.1 mph 52 % 0.0 in
16:34 26.7 °F 16.0 °F 1022.9 in SSW 3.7 mph 4.7 mph 52 % 0.0 in
16:39 27.0 °F 16.0 °F 1022.9 in SSW 5.8 mph 5.8 mph 51 % 0.0 in
16:44 26.8 °F 16.1 °F 1023.9 in SW 9.3 mph 9.3 mph 52 % 0.0 in
16:49 26.6 °F 15.9 °F 1023.9 in South 9.3 mph 9.3 mph 52 % 0.0 in
16:54 26.7 °F 16.3 °F 1023.9 in SW 7.4 mph 7.4 mph 53 % 0.0 in
16:59 26.8 °F 16.4 °F 1023.9 in WSW 9.3 mph 9.3 mph 53 % 0.0 in
17:09 25.9 °F 15.6 °F 1023.9 in SW 14.8 mph 14.8 mph 53 % 0.0 in
17:19 25.7 °F 15.7 °F 1023.9 in SSW 9.3 mph 9.3 mph 54 % 0.0 in
17:24 25.6 °F 15.6 °F 1023.9 in WSW 11.1 mph 11.1 mph 54 % 0.0 in
17:29 25.4 °F 15.7 °F 1023.9 in SSW 11.1 mph 11.1 mph 55 % 0.0 in
17:34 25.1 °F 15.4 °F 1023.9 in SW 12.6 mph 12.6 mph 55 % 0.0 in
17:39 25.0 °F 15.3 °F 1023.9 in SW 11.9 mph 11.9 mph 55 % 0.0 in
17:44 24.7 °F 15.6 °F 1023.9 in SSW 13.0 mph 13.0 mph 57 % 0.0 in
17:49 24.6 °F 15.5 °F 1023.9 in SW 12.6 mph 12.6 mph 57 % 0.0 in
17:54 24.5 °F 15.7 °F 1023.9 in SW 11.1 mph 11.1 mph 58 % 0.0 in
17:59 24.3 °F 15.5 °F 1023.9 in WSW 11.1 mph 11.1 mph 58 % 0.0 in
18:04 24.4 °F 15.9 °F 1023.9 in SSW 13.0 mph 13.0 mph 59 % 0.0 in
18:09 24.2 °F 15.7 °F 1023.9 in SW 13.0 mph 13.0 mph 59 % 0.0 in
18:14 23.9 °F 15.7 °F 1023.9 in West 9.3 mph 9.3 mph 60 % 0.0 in
18:19 23.8 °F 15.8 °F 1023.9 in WSW 15.6 mph 15.6 mph 61 % 0.0 in
18:24 23.6 °F 15.6 °F 1023.9 in SW 9.3 mph 9.3 mph 61 % 0.0 in
18:26 23.6 °F 15.6 °F 1023.9 in SW 9.3 mph 9.3 mph 61 % 0.0 in
18:31 23.5 °F 15.8 °F 1023.9 in WSW 11.1 mph 11.1 mph 62 % 0.0 in
18:36 23.3 °F 15.8 °F 1023.9 in SW 11.1 mph 11.1 mph 63 % 0.0 in
18:41 23.2 °F 15.8 °F 1023.9 in SW 13.0 mph 13.0 mph 63 % 0.0 in
18:46 23.0 °F 15.8 °F 1023.9 in SSW 9.3 mph 9.5 mph 64 % 0.0 in
18:51 22.8 °F 15.6 °F 1023.9 in SSE 7.4 mph 7.4 mph 64 % 0.0 in
18:56 22.6 °F 15.7 °F 1023.9 in SSW 7.4 mph 7.4 mph 65 % 0.0 in
19:01 22.4 °F 15.5 °F 1024.9 in WSW 6.4 mph 6.4 mph 65 % 0.0 in
19:06 22.3 °F 15.7 °F 1024.9 in West 5.8 mph 5.8 mph 66 % 0.0 in
19:11 22.1 °F 15.4 °F 1024.9 in SW 9.3 mph 9.3 mph 66 % 0.0 in
19:16 22.0 °F 15.6 °F 1023.9 in SW 7.6 mph 7.6 mph 67 % 0.0 in
19:21 21.8 °F 15.6 °F 1023.9 in SW 7.4 mph 7.4 mph 68 % 0.0 in
19:26 21.7 °F 15.8 °F 1023.9 in SSW 14.8 mph 14.8 mph 69 % 0.0 in
19:31 21.5 °F 15.8 °F 1024.9 in SW 9.3 mph 9.3 mph 70 % 0.0 in
19:36 21.4 °F 15.7 °F 1024.9 in SW 9.3 mph 9.3 mph 70 % 0.0 in
19:41 21.3 °F 15.8 °F 1024.9 in SW 11.1 mph 11.1 mph 71 % 0.0 in
19:46 21.1 °F 15.6 °F 1023.9 in WSW 9.3 mph 9.3 mph 71 % 0.0 in
19:51 21.0 °F 15.8 °F 1023.9 in SW 9.3 mph 9.3 mph 72 % 0.0 in
19:56 20.9 °F 15.9 °F 1023.9 in SW 13.0 mph 13.0 mph 73 % 0.0 in
20:01 20.8 °F 15.8 °F 1024.9 in SW 9.3 mph 9.3 mph 73 % 0.0 in
20:06 20.8 °F 16.0 °F 1024.9 in SW 9.3 mph 9.3 mph 74 % 0.0 in
20:11 20.7 °F 15.9 °F 1024.9 in SW 9.3 mph 9.3 mph 74 % 0.0 in
20:16 20.6 °F 16.0 °F 1024.9 in West 9.3 mph 9.3 mph 75 % 0.0 in
20:21 20.6 °F 16.0 °F 1024.9 in SSW 7.4 mph 7.4 mph 75 % 0.0 in
20:26 20.5 °F 16.1 °F 1024.9 in West 7.9 mph 7.9 mph 76 % 0.0 in
20:31 20.4 °F 16.0 °F 1026.0 in WSW 9.3 mph 9.3 mph 76 % 0.0 in
20:36 20.4 °F 16.2 °F 1026.0 in West 4.2 mph 4.2 mph 77 % 0.0 in
20:41 20.3 °F 16.1 °F 1026.0 in WSW 5.6 mph 5.6 mph 77 % 0.0 in
20:46 20.2 °F 16.1 °F 1026.0 in WSW 5.6 mph 5.6 mph 77 % 0.0 in
20:51 20.2 °F 16.1 °F 1026.0 in SW 7.4 mph 7.4 mph 77 % 0.0 in
20:56 20.1 °F 16.2 °F 1026.0 in SW 7.4 mph 7.4 mph 78 % 0.0 in
21:01 20.1 °F 16.2 °F 1026.0 in SW 5.6 mph 5.6 mph 78 % 0.0 in
21:06 20.0 °F 16.1 °F 1026.0 in WSW 7.4 mph 7.4 mph 78 % 0.0 in
21:11 20.0 °F 16.1 °F 1026.0 in SW 7.4 mph 7.4 mph 78 % 0.0 in
21:16 19.9 °F 16.2 °F 1026.0 in SSW 5.6 mph 5.6 mph 79 % 0.0 in
21:21 19.8 °F 16.1 °F 1026.0 in WSW 5.6 mph 5.6 mph 79 % 0.0 in
21:26 19.8 °F 16.1 °F 1026.0 in SW 3.9 mph 3.9 mph 79 % 0.0 in
21:31 19.7 °F 16.2 °F 1026.0 in SW 5.6 mph 5.6 mph 80 % 0.0 in
21:36 19.7 °F 16.2 °F 1026.0 in SW 5.0 mph 5.0 mph 80 % 0.0 in
21:41 19.7 °F 16.2 °F 1026.0 in West 5.6 mph 5.6 mph 80 % 0.0 in
21:46 19.6 °F 16.2 °F 1027.0 in WSW 3.7 mph 3.7 mph 81 % 0.0 in
21:51 19.6 °F 16.2 °F 1027.0 in SW 1.9 mph   81 % 0.0 in
21:56 19.5 °F 16.3 °F 1027.0 in West 1.9 mph 1.9 mph 82 % 0.0 in
22:01 19.5 °F 16.3 °F 1026.0 in SW 3.2 mph   82 % 0.0 in
22:06 19.5 °F 16.3 °F 1026.0 in WSW 1.9 mph   82 % 0.0 in
22:11 19.4 °F 16.2 °F 1026.0 in WSW 1.9 mph 1.9 mph 82 % 0.0 in
22:16 19.4 °F 16.2 °F 1026.0 in West 3.7 mph 3.7 mph 82 % 0.0 in
22:21 19.4 °F 16.2 °F 1026.0 in West 1.9 mph 1.9 mph 82 % 0.0 in
22:26 19.3 °F 16.3 °F 1026.0 in West 3.7 mph 3.7 mph 83 % 0.0 in
22:31 19.3 °F 16.3 °F 1026.0 in WSW 1.9 mph 1.9 mph 83 % 0.0 in
22:36 19.2 °F 16.2 °F 1026.0 in WSW 1.9 mph 1.9 mph 83 % 0.0 in
22:41 19.2 °F 16.2 °F 1026.0 in WSW 3.7 mph 3.7 mph 83 % 0.0 in
22:46 19.2 °F 16.2 °F 1026.0 in WSW 2.6 mph   83 % 0.0 in
22:51 19.1 °F 16.2 °F 1026.0 in WSW 3.7 mph 3.7 mph 83 % 0.0 in
22:56 19.1 °F 16.3 °F 1026.0 in SW 1.9 mph   84 % 0.0 in
23:01 19.0 °F 16.2 °F 1026.0 in Calm     84 % 0.0 in
23:06 19.0 °F 16.2 °F 1026.0 in WSW 1.9 mph 1.9 mph 84 % 0.0 in
23:11 19.1 °F 16.3 °F 1026.0 in West 1.9 mph 2.3 mph 84 % 0.0 in
23:16 19.0 °F 16.2 °F 1026.0 in West 3.7 mph 3.7 mph 84 % 0.0 in
23:21 19.0 °F 16.2 °F 1026.0 in WSW 3.7 mph 3.7 mph 84 % 0.0 in
23:26 19.0 °F 16.2 °F 1026.0 in WSW 3.7 mph 3.7 mph 84 % 0.0 in
23:31 19.0 °F 16.2 °F 1026.0 in West 3.7 mph 3.7 mph 84 % 0.0 in
23:36 19.0 °F 16.2 °F 1026.0 in SW 3.7 mph 3.7 mph 84 % 0.0 in
23:41 19.0 °F 16.4 °F 1026.0 in West 1.9 mph 2.3 mph 85 % 0.0 in
23:46 19.0 °F 16.4 °F 1026.0 in West 5.6 mph 5.6 mph 85 % 0.0 in
23:51 19.0 °F 16.4 °F 1026.0 in West 3.7 mph 3.7 mph 85 % 0.0 in
23:56 19.0 °F 16.4 °F 1026.0 in WSW 7.4 mph 7.4 mph 85 % 0.0 in
Meteo Sesrovires
Elogis d' Weather Underground - 1.5 mb

Guio original per  Jim McMurry - jmcmurry@mwt.net Adaptat per a la plantilla per  Wim van der Kuil - Leuven-Template.eu

Trobareu la nostra informacio del temps tambe a:

Weather Underground

AWEKAS